createdAt,value
2018-05-08T00:00:15.896Z,15.07
2018-05-08T00:01:15.900Z,15.03
2018-05-08T00:02:30.851Z,14.91
2018-05-08T00:03:16.206Z,14.77
2018-05-08T00:04:16.231Z,14.72
2018-05-08T00:05:16.253Z,14.62
2018-05-08T00:06:16.276Z,14.58
2018-05-08T00:07:16.299Z,14.65
2018-05-08T00:08:16.326Z,14.64
2018-05-08T00:09:16.345Z,14.64
2018-05-08T00:10:16.373Z,14.68
2018-05-08T00:11:31.062Z,14.61
2018-05-08T00:12:15.897Z,14.68
2018-05-08T00:13:16.439Z,14.8
2018-05-08T00:14:16.466Z,14.78
2018-05-08T00:15:16.485Z,14.83
2018-05-08T00:16:16.512Z,14.91
2018-05-08T00:17:16.269Z,14.86
2018-05-08T00:18:16.297Z,14.8
2018-05-08T00:19:16.321Z,14.83
2018-05-08T00:20:31.259Z,14.88
2018-05-08T00:21:16.364Z,14.86
2018-05-08T00:22:16.648Z,14.78
2018-05-08T00:23:16.670Z,14.81
2018-05-08T00:24:16.804Z,14.75
2018-05-08T00:25:16.717Z,14.68
2018-05-08T00:26:16.477Z,14.62
2018-05-08T00:27:31.418Z,14.68
2018-05-08T00:28:16.623Z,14.65
2018-05-08T00:29:16.815Z,14.64
2018-05-08T00:30:16.831Z,14.58
2018-05-08T00:31:16.858Z,14.65
2018-05-08T00:32:16.873Z,14.6
2018-05-08T00:33:16.637Z,14.68
2018-05-08T00:34:31.579Z,14.55
2018-05-08T00:35:16.685Z,14.5
2018-05-08T00:36:16.705Z,14.55
2018-05-08T00:37:16.729Z,14.47
2018-05-08T00:38:16.754Z,14.54
2018-05-08T00:39:16.518Z,14.5
2018-05-08T00:40:16.539Z,14.4
2018-05-08T00:42:17.100Z,14.51
2018-05-08T00:43:31.791Z,14.52
2018-05-08T00:44:16.889Z,14.47
2018-05-08T00:45:17.171Z,14.4
2018-05-08T00:46:17.198Z,14.47
2018-05-08T00:47:16.961Z,14.42
2018-05-08T00:48:31.902Z,14.39
2018-05-08T00:50:17.289Z,14.4
2018-05-08T00:51:17.481Z,14.37
2018-05-08T00:52:31.734Z,14.4
2018-05-08T00:53:17.352Z,14.43
2018-05-08T00:54:17.376Z,14.39
2018-05-08T00:55:17.398Z,14.32
2018-05-08T00:56:17.420Z,14.36
2018-05-08T00:57:17.448Z,14.32
2018-05-08T00:58:17.206Z,14.32
2018-05-08T01:00:17.513Z,14.39
2018-05-08T01:01:32.270Z,14.32
2018-05-08T01:02:17.399Z,14.28
2018-05-08T01:03:17.579Z,14.37
2018-05-08T01:04:17.602Z,14.36
2018-05-08T01:05:17.624Z,14.25
2018-05-08T01:06:17.395Z,14.35
2018-05-08T01:07:17.671Z,14.33
2018-05-08T01:08:32.352Z,14.18
2018-05-08T01:09:17.715Z,14.28
2018-05-08T01:10:17.736Z,14.2
2018-05-08T01:12:17.791Z,14.15
2018-05-08T01:13:17.549Z,14.03
2018-05-08T01:14:32.491Z,14.1
2018-05-08T01:15:17.855Z,14.04
2018-05-08T01:17:17.897Z,14.06
2018-05-08T01:19:17.944Z,14
2018-05-08T01:20:17.965Z,13.97
2018-05-08T01:21:17.730Z,13.96
2018-05-08T01:22:32.671Z,13.85
2018-05-08T01:23:32.694Z,13.96
2018-05-08T01:24:18.057Z,13.87
2018-05-08T01:25:18.079Z,13.85
2018-05-08T01:26:18.104Z,13.87
2018-05-08T01:28:17.887Z,13.89
2018-05-08T01:30:18.190Z,13.77
2018-05-08T01:31:18.227Z,13.75
2018-05-08T01:32:17.977Z,13.77
2018-05-08T01:33:18.262Z,13.82
2018-05-08T01:34:18.284Z,13.73
2018-05-08T01:35:18.042Z,13.77
2018-05-08T01:36:18.075Z,13.75
2018-05-08T01:37:18.354Z,13.75
2018-05-08T01:38:33.032Z,13.7
2018-05-08T01:39:18.393Z,13.66
2018-05-08T01:41:18.482Z,13.64
2018-05-08T01:42:18.464Z,13.59
2018-05-08T01:43:18.703Z,13.57
2018-05-08T01:44:18.505Z,13.64
2018-05-08T01:45:18.528Z,13.63
2018-05-08T01:47:18.575Z,13.63
2018-05-08T01:48:18.596Z,13.63
2018-05-08T01:49:18.625Z,13.63
2018-05-08T01:50:18.639Z,13.59
2018-05-08T01:51:18.663Z,13.6
2018-05-08T01:52:33.444Z,13.63
2018-05-08T01:53:18.710Z,13.64
2018-05-08T01:54:18.471Z,13.57
2018-05-08T01:55:18.498Z,13.63
2018-05-08T01:56:18.780Z,13.62
2018-05-08T01:57:18.797Z,13.52
2018-05-08T01:58:18.820Z,13.6
2018-05-08T01:59:18.850Z,13.6
2018-05-08T02:00:18.870Z,13.57
2018-05-08T02:01:18.887Z,13.52
2018-05-08T02:02:33.571Z,13.55
2018-05-08T02:03:18.672Z,13.49
2018-05-08T02:04:18.957Z,13.48
2018-05-08T02:05:18.982Z,13.57
2018-05-08T02:06:33.665Z,13.38
2018-05-08T02:07:19.020Z,13.45
2018-05-08T02:08:19.043Z,13.44
2018-05-08T02:09:19.067Z,13.49
2018-05-08T02:10:33.748Z,13.44
2018-05-08T02:11:33.771Z,13.46
2018-05-08T02:12:33.792Z,13.46
2018-05-08T02:13:19.166Z,13.45
2018-05-08T02:14:19.181Z,13.51
2018-05-08T02:15:18.941Z,13.57
2018-05-08T02:16:19.224Z,13.48
2018-05-08T02:17:19.246Z,13.55
2018-05-08T02:18:33.925Z,13.46
2018-05-08T02:19:19.037Z,13.51
2018-05-08T02:20:19.453Z,13.45
2018-05-08T02:22:19.111Z,13.38
2018-05-08T02:23:19.384Z,13.36
2018-05-08T02:24:19.143Z,13.29
2018-05-08T02:25:34.084Z,13.22
2018-05-08T02:26:19.186Z,13.19
2018-05-08T02:27:19.208Z,13.23
2018-05-08T02:28:33.892Z,13.19
2018-05-08T02:29:19.513Z,13.2
2018-05-08T02:30:19.284Z,13.14
2018-05-08T02:31:19.558Z,13.14
2018-05-08T02:32:19.588Z,13.1
2018-05-08T02:33:19.601Z,13.1
2018-05-08T02:34:34.284Z,13.2
2018-05-08T02:35:19.493Z,13.2
2018-05-08T02:37:19.695Z,13.12
2018-05-08T02:38:19.718Z,13.2
2018-05-08T02:39:19.477Z,13.17
2018-05-08T02:40:19.501Z,13.19
2018-05-08T02:41:19.783Z,13.17
2018-05-08T02:42:19.286Z,13.15
2018-05-08T02:43:19.821Z,13.04
2018-05-08T02:44:19.608Z,13.04
2018-05-08T02:45:19.709Z,12.92
2018-05-08T02:46:19.905Z,12.97
2018-05-08T02:47:19.919Z,13.01
2018-05-08T02:48:19.953Z,12.93
2018-05-08T02:49:34.616Z,12.89
2018-05-08T02:50:19.977Z,12.93
2018-05-08T02:51:20.004Z,12.87
2018-05-08T02:52:20.029Z,12.85
2018-05-08T02:53:20.050Z,12.87
2018-05-08T02:54:19.810Z,12.87
2018-05-08T02:55:20.092Z,12.89
2018-05-08T02:56:20.109Z,12.92
2018-05-08T02:57:34.800Z,12.86
2018-05-08T02:58:20.155Z,12.82
2018-05-08T02:59:20.178Z,12.83
2018-05-08T03:01:20.222Z,12.86
2018-05-08T03:02:20.242Z,12.77
2018-05-08T03:03:20.266Z,12.74
2018-05-08T03:04:20.301Z,12.72
2018-05-08T03:05:20.326Z,12.65
2018-05-08T03:07:20.093Z,12.68
2018-05-08T03:08:20.473Z,12.64
2018-05-08T03:09:20.413Z,12.75
2018-05-08T03:10:20.429Z,12.68
2018-05-08T03:11:20.453Z,12.74
2018-05-08T03:12:35.124Z,12.68
2018-05-08T03:13:20.229Z,12.72
2018-05-08T03:14:20.508Z,12.64
2018-05-08T03:15:20.566Z,12.7
2018-05-08T03:16:20.557Z,12.74
2018-05-08T03:17:20.578Z,12.65
2018-05-08T03:18:20.075Z,12.52
2018-05-08T03:19:20.618Z,12.5
2018-05-08T03:20:20.646Z,12.52
2018-05-08T03:21:35.324Z,12.45
2018-05-08T03:23:20.706Z,12.42
2018-05-08T03:24:20.723Z,12.37
2018-05-08T03:25:20.749Z,12.42
2018-05-08T03:26:35.431Z,12.52
2018-05-08T03:27:20.792Z,12.46
2018-05-08T03:28:20.556Z,12.42
2018-05-08T03:29:20.577Z,12.46
2018-05-08T03:30:20.861Z,12.42
2018-05-08T03:31:20.877Z,12.42
2018-05-08T03:32:20.900Z,12.47
2018-05-08T03:33:20.661Z,12.46
2018-05-08T03:34:20.684Z,12.52
2018-05-08T03:35:20.968Z,12.54
2018-05-08T03:36:20.987Z,12.52
2018-05-08T03:37:35.667Z,12.52
2018-05-08T03:38:21.032Z,12.49
2018-05-08T03:39:21.048Z,12.6
2018-05-08T03:40:21.083Z,12.62
2018-05-08T03:41:20.837Z,12.67
2018-05-08T03:42:21.125Z,12.65
2018-05-08T03:43:21.138Z,12.68
2018-05-08T03:44:21.162Z,12.68
2018-05-08T03:45:21.189Z,12.77
2018-05-08T03:46:21.202Z,12.67
2018-05-08T03:47:21.226Z,12.65
2018-05-08T03:48:21.250Z,12.79
2018-05-08T03:49:20.758Z,12.83
2018-05-08T03:50:21.033Z,12.72
2018-05-08T03:51:21.329Z,12.78
2018-05-08T03:52:21.354Z,12.72
2018-05-08T03:53:36.016Z,12.82
2018-05-08T03:54:21.380Z,12.77
2018-05-08T03:55:21.404Z,12.75
2018-05-08T03:57:21.536Z,12.89
2018-05-08T03:58:21.472Z,12.92
2018-05-08T03:59:21.489Z,12.93
2018-05-08T04:00:21.513Z,12.92
2018-05-08T04:01:21.537Z,12.9
2018-05-08T04:02:21.557Z,12.97
2018-05-08T04:03:21.577Z,13.05
2018-05-08T04:04:21.597Z,13.05
2018-05-08T04:05:21.733Z,13.01
2018-05-08T04:06:21.750Z,13.19
2018-05-08T04:08:21.621Z,13.23
2018-05-08T04:09:36.368Z,13.17
2018-05-08T04:10:21.735Z,13.22
2018-05-08T04:11:21.505Z,13.15
2018-05-08T04:12:21.774Z,13.23
2018-05-08T04:13:21.797Z,13.19
2018-05-08T04:14:21.820Z,13.32
2018-05-08T04:15:21.839Z,13.25
2018-05-08T04:16:21.610Z,13.3
2018-05-08T04:17:21.885Z,13.3
2018-05-08T04:18:36.566Z,13.41
2018-05-08T04:19:21.926Z,13.42
2018-05-08T04:20:21.954Z,13.49
2018-05-08T04:21:21.973Z,13.46
2018-05-08T04:22:21.739Z,13.49
2018-05-08T04:23:21.764Z,13.48
2018-05-08T04:24:36.700Z,13.51
2018-05-08T04:25:22.072Z,13.52
2018-05-08T04:26:36.752Z,13.52
2018-05-08T04:27:22.108Z,13.54
2018-05-08T04:28:21.866Z,13.49
2018-05-08T04:29:22.155Z,13.59
2018-05-08T04:30:22.177Z,13.6
2018-05-08T04:31:22.211Z,13.62
2018-05-08T04:32:36.876Z,13.66
2018-05-08T04:33:21.721Z,13.62
2018-05-08T04:34:21.742Z,13.63
2018-05-08T04:35:22.283Z,13.64
2018-05-08T04:36:22.305Z,13.75
2018-05-08T04:37:22.329Z,13.81
2018-05-08T04:38:22.353Z,13.77
2018-05-08T04:39:22.373Z,13.77
2018-05-08T04:40:22.402Z,13.87
2018-05-08T04:41:22.420Z,13.91
2018-05-08T04:42:22.454Z,13.91
2018-05-08T04:43:22.461Z,13.99
2018-05-08T04:44:22.493Z,13.96
2018-05-08T04:45:22.248Z,14.07
2018-05-08T04:47:22.674Z,14
2018-05-08T04:48:22.578Z,14.15
2018-05-08T04:49:37.303Z,14.69
2018-05-08T04:50:22.624Z,15.21
2018-05-08T04:51:22.646Z,16.27
2018-05-08T04:52:22.666Z,17.28
2018-05-08T04:53:22.427Z,18.33
2018-05-08T04:54:22.708Z,19.18
2018-05-08T04:56:37.418Z,20.61
2018-05-08T05:00:22.863Z,22.4
2018-05-08T05:02:22.651Z,22.98
2018-05-08T05:03:37.596Z,23.48
2018-05-08T05:04:37.622Z,23.5
2018-05-08T05:05:23.092Z,24.03
2018-05-08T05:06:23.023Z,23.75
2018-05-08T05:07:22.784Z,24.3
2018-05-08T05:08:23.095Z,24.37
2018-05-08T05:09:23.148Z,24.57
2018-05-08T05:10:22.867Z,24.71
2018-05-08T05:11:23.156Z,24.73
2018-05-08T05:12:37.945Z,24.95
2018-05-08T05:13:22.956Z,25.03
2018-05-08T05:14:22.991Z,25.2
2018-05-08T05:15:23.295Z,25.46
2018-05-08T05:16:23.310Z,25.62
2018-05-08T05:17:23.433Z,25.67
2018-05-08T05:18:23.363Z,25.73
2018-05-08T05:19:23.393Z,25.57
2018-05-08T05:20:23.425Z,25.94
2018-05-08T05:21:38.120Z,26.73
2018-05-08T05:22:23.489Z,26.82
2018-05-08T05:23:23.260Z,27.19
2018-05-08T05:24:37.955Z,27.4
2018-05-08T05:25:23.321Z,27.82
2018-05-08T05:26:23.623Z,28.06
2018-05-08T05:27:23.649Z,28.18
2018-05-08T05:28:38.337Z,28.04
2018-05-08T05:29:23.461Z,28.29
2018-05-08T05:30:23.482Z,27.96
2018-05-08T05:31:23.775Z,28.19
2018-05-08T05:32:23.806Z,28.12
2018-05-08T05:33:23.842Z,27.97
2018-05-08T05:34:23.613Z,27.87
2018-05-08T05:35:23.648Z,28.11
2018-05-08T05:36:23.689Z,28.31
2018-05-08T05:37:23.983Z,28.46
2018-05-08T05:38:24.008Z,28.67
2018-05-08T05:39:23.796Z,28.95
2018-05-08T05:40:24.083Z,28.98
2018-05-08T05:42:24.145Z,29.04
2018-05-08T05:43:24.178Z,28.64
2018-05-08T05:44:38.872Z,28.71
2018-05-08T05:45:24.248Z,28.9
2018-05-08T05:46:38.949Z,29.27
2018-05-08T05:47:24.314Z,28.96
2018-05-08T05:49:24.381Z,29.61
2018-05-08T05:50:24.430Z,29.19
2018-05-08T05:51:24.448Z,29.02
2018-05-08T05:52:24.231Z,29.12
2018-05-08T05:53:24.478Z,28.7
2018-05-08T05:54:24.298Z,28.52
2018-05-08T05:55:24.594Z,28.77
2018-05-08T05:56:24.365Z,29.26
2018-05-08T05:57:24.657Z,29.43
2018-05-08T05:59:39.391Z,29.11
2018-05-08T06:00:24.765Z,29.12
2018-05-08T06:01:24.809Z,28.88
2018-05-08T06:02:24.834Z,28.96
2018-05-08T06:03:24.920Z,29.41
2018-05-08T06:04:24.903Z,29.85
2018-05-08T06:05:39.638Z,29.89
2018-05-08T06:06:25.074Z,29.85
2018-05-08T06:07:25.013Z,29.95
2018-05-08T06:08:24.787Z,29.78
2018-05-08T06:09:25.082Z,29.71
2018-05-08T06:10:24.858Z,29.83
2018-05-08T06:11:25.152Z,30.02
2018-05-08T06:12:25.187Z,30.45
2018-05-08T06:14:25.309Z,30.31
2018-05-08T06:15:25.297Z,29.86
2018-05-08T06:16:25.081Z,30.22
2018-05-08T06:17:25.454Z,30.1
2018-05-08T06:18:25.416Z,30.37
2018-05-08T06:19:25.180Z,30.19
2018-05-08T06:20:25.440Z,30.16
2018-05-08T06:21:25.510Z,30
2018-05-08T06:22:25.288Z,29.97
2018-05-08T06:23:40.249Z,29.86
2018-05-08T06:24:25.624Z,29.95
2018-05-08T06:26:25.697Z,30.42
2018-05-08T06:27:25.730Z,30.13
2018-05-08T06:29:25.572Z,29.85
2018-05-08T06:30:25.581Z,29.6
2018-05-08T06:31:40.549Z,29.34
2018-05-08T06:32:25.919Z,29.73
2018-05-08T06:33:25.953Z,30.01
2018-05-08T06:34:25.992Z,29.58
2018-05-08T06:35:26.093Z,29.8
2018-05-08T06:36:26.063Z,30.1
2018-05-08T06:37:26.100Z,30.11
2018-05-08T06:38:26.140Z,30.64
2018-05-08T06:39:26.258Z,30.65
2018-05-08T06:40:26.209Z,30.32
2018-05-08T06:41:26.245Z,30.55
2018-05-08T06:42:26.280Z,30.58
2018-05-08T06:43:26.401Z,30.62
2018-05-08T06:45:26.133Z,30.27
2018-05-08T06:46:26.429Z,30.46
2018-05-08T06:47:41.127Z,30.92
2018-05-08T06:48:26.248Z,30.34
2018-05-08T06:49:26.280Z,30.77
2018-05-08T06:51:26.621Z,30.39
2018-05-08T06:52:26.651Z,30.73
2018-05-08T06:53:26.689Z,30.62
2018-05-08T06:54:26.742Z,30.57
2018-05-08T06:55:41.432Z,31.19
2018-05-08T06:56:26.843Z,31.5
2018-05-08T06:57:41.520Z,31.54
2018-05-08T06:58:26.614Z,31.8
2018-05-08T06:59:27.037Z,31.43
2018-05-08T07:00:26.691Z,31.75
2018-05-08T07:01:27.019Z,31.58
2018-05-08T07:02:26.778Z,31.53
2018-05-08T07:03:41.742Z,31.53
2018-05-08T07:04:27.136Z,31.51
2018-05-08T07:05:27.165Z,31.54
2018-05-08T07:06:26.917Z,31.75
2018-05-08T07:07:27.209Z,31.62
2018-05-08T07:08:27.277Z,31.95
2018-05-08T07:09:27.300Z,31.48
2018-05-08T07:10:42.012Z,32.07
2018-05-08T07:11:27.129Z,31.99
2018-05-08T07:12:27.412Z,32.4
2018-05-08T07:13:27.453Z,32.23
2018-05-08T07:16:27.581Z,31.95
2018-05-08T07:18:27.363Z,32.25
2018-05-08T07:20:27.707Z,32.6
2018-05-08T07:21:27.781Z,32.66
2018-05-08T07:22:27.529Z,32.96
2018-05-08T07:23:27.929Z,33.15
2018-05-08T07:24:27.875Z,32.74
2018-05-08T07:25:27.631Z,31.91
2018-05-08T07:26:27.707Z,31.95
2018-05-08T07:27:27.985Z,31.96
2018-05-08T07:28:42.665Z,32.07
2018-05-08T07:29:27.809Z,32.33
2018-05-08T07:30:28.080Z,32.07
2018-05-08T07:31:28.145Z,32.07
2018-05-08T07:32:27.904Z,32.19
2018-05-08T07:33:27.958Z,31.95
2018-05-08T07:34:42.633Z,32.32
2018-05-08T07:35:27.750Z,32.3
2018-05-08T07:36:28.333Z,32.35
2018-05-08T07:37:28.095Z,32.18
2018-05-08T07:38:28.468Z,32.48
2018-05-08T07:41:28.493Z,32.87
2018-05-08T07:42:28.300Z,32.72
2018-05-08T07:43:28.591Z,32.74
2018-05-08T07:44:28.354Z,32.33
2018-05-08T07:45:28.586Z,32.65
2018-05-08T07:46:28.708Z,32.85
2018-05-08T07:47:28.477Z,32.78
2018-05-08T07:48:28.523Z,32.97
2018-05-08T07:49:28.548Z,32.84
2018-05-08T07:50:28.868Z,32.52
2018-05-08T07:51:28.874Z,32.65
2018-05-08T07:52:28.651Z,33.03
2018-05-08T07:53:28.961Z,33.03
2018-05-08T07:56:28.813Z,33.09
2018-05-08T07:57:29.194Z,33.07
2018-05-08T07:58:29.137Z,33.06
2018-05-08T07:59:28.672Z,33.15
2018-05-08T08:00:43.878Z,33.57
2018-05-08T08:01:29.278Z,34.02
2018-05-08T08:02:29.316Z,33.88
2018-05-08T08:03:29.720Z,33.54
2018-05-08T08:04:28.857Z,33.9
2018-05-08T08:05:29.137Z,33.93
2018-05-08T08:06:44.140Z,33.91
2018-05-08T08:07:29.621Z,33.95
2018-05-08T08:08:44.199Z,33.6
2018-05-08T08:09:29.032Z,33.6
2018-05-08T08:10:29.600Z,34.21
2018-05-08T08:11:29.646Z,34.47
2018-05-08T08:12:29.991Z,34.54
2018-05-08T08:13:29.697Z,34.77
2018-05-08T08:14:29.765Z,34.53
2018-05-08T08:15:44.179Z,34.03
2018-05-08T08:16:29.818Z,34
2018-05-08T08:18:30.064Z,34.05
2018-05-08T08:19:29.696Z,34.06
2018-05-08T08:21:30.030Z,33.39
2018-05-08T08:22:44.699Z,33.56
2018-05-08T08:23:29.559Z,33.88
2018-05-08T08:24:30.177Z,33.6
2018-05-08T08:25:30.170Z,33.6
2018-05-08T08:26:29.959Z,33.6
2018-05-08T08:27:30.229Z,33.53
2018-05-08T08:28:30.024Z,33.51
2018-05-08T08:29:30.040Z,33.69
2018-05-08T08:30:30.103Z,34.19
2018-05-08T08:31:30.117Z,34.21
2018-05-08T08:32:30.179Z,33.73
2018-05-08T08:33:45.127Z,34.31
2018-05-08T08:34:30.488Z,34.35
2018-05-08T08:35:30.532Z,33.88
2018-05-08T08:36:30.592Z,33.98
2018-05-08T08:37:30.075Z,33.88
2018-05-08T08:38:45.312Z,34.1
2018-05-08T08:39:30.666Z,34.7
2018-05-08T08:40:30.720Z,34.84
2018-05-08T08:41:30.754Z,34.59
2018-05-08T08:42:30.548Z,34.92
2018-05-08T08:44:30.595Z,34.47
2018-05-08T08:45:30.390Z,34.08
2018-05-08T08:46:30.776Z,34.06
2018-05-08T08:47:30.781Z,34.16
2018-05-08T08:48:31.028Z,33.84
2018-05-08T08:49:30.804Z,33.91
2018-05-08T08:51:31.121Z,33.49
2018-05-08T08:52:45.869Z,33.09
2018-05-08T08:53:30.667Z,32.96
2018-05-08T08:54:45.902Z,33.01
2018-05-08T08:55:31.259Z,32.78
2018-05-08T08:56:31.338Z,32.75
2018-05-08T08:57:31.370Z,33.22
2018-05-08T08:58:31.378Z,33.18
2018-05-08T08:59:31.153Z,33.37
2018-05-08T09:00:31.438Z,33.44
2018-05-08T09:01:31.505Z,33.57
2018-05-08T09:02:46.175Z,33.51
2018-05-08T09:03:31.572Z,33.69
2018-05-08T09:04:31.328Z,33.68
2018-05-08T09:05:31.647Z,33.41
2018-05-08T09:06:31.671Z,33.31
2018-05-08T09:07:31.736Z,33.15
2018-05-08T09:08:31.732Z,33.26
2018-05-08T09:09:46.446Z,33.07
2018-05-08T09:10:31.809Z,33.12
2018-05-08T09:12:31.643Z,33.38
2018-05-08T09:13:31.666Z,33.14
2018-05-08T09:14:31.713Z,33.15
2018-05-08T09:15:31.718Z,33.29
2018-05-08T09:16:32.173Z,33.29
2018-05-08T09:17:32.059Z,33.47
2018-05-08T09:18:32.095Z,33.41
2018-05-08T09:19:31.624Z,33.19
2018-05-08T09:20:32.163Z,33.03
2018-05-08T09:21:32.196Z,33.09
2018-05-08T09:22:32.248Z,33.16
2018-05-08T09:23:32.297Z,32.88
2018-05-08T09:24:32.066Z,32.28
2018-05-08T09:25:31.820Z,32.07
2018-05-08T09:26:32.391Z,32.26
2018-05-08T09:27:32.261Z,32.41
2018-05-08T09:28:32.475Z,32.13
2018-05-08T09:29:32.477Z,32.44
2018-05-08T09:30:32.534Z,32.13
2018-05-08T09:31:32.560Z,32.35
2018-05-08T09:32:32.595Z,32.66
2018-05-08T09:33:32.743Z,32.78
2018-05-08T09:34:32.678Z,33.21
2018-05-08T09:35:32.688Z,32.85
2018-05-08T09:36:32.733Z,32.77
2018-05-08T09:37:32.757Z,32.37
2018-05-08T09:38:32.817Z,32.04
2018-05-08T09:39:32.823Z,32.14
2018-05-08T09:41:47.305Z,31.84
2018-05-08T09:42:32.683Z,31.7
2018-05-08T09:43:32.970Z,31.75
2018-05-08T09:44:32.997Z,31.73
2018-05-08T09:45:32.791Z,31.62
2018-05-08T09:46:32.815Z,31.48
2018-05-08T09:47:32.600Z,31.5
2018-05-08T09:48:47.814Z,31.73
2018-05-08T09:49:33.204Z,31.96
2018-05-08T09:50:33.200Z,31.73
2018-05-08T09:51:33.255Z,31.85
2018-05-08T09:52:33.270Z,31.86
2018-05-08T09:53:33.335Z,31.92
2018-05-08T09:54:33.096Z,31.89
2018-05-08T09:55:33.132Z,32.35
2018-05-08T09:56:33.401Z,32.74
2018-05-08T09:57:48.115Z,33.18
2018-05-08T09:58:33.214Z,33.12
2018-05-08T09:59:33.529Z,32.65
2018-05-08T10:00:33.540Z,32.82
2018-05-08T10:01:33.607Z,32.37
2018-05-08T10:03:33.668Z,32
2018-05-08T10:04:33.697Z,32.22
2018-05-08T10:05:33.466Z,32.23
2018-05-08T10:06:33.877Z,32.11
2018-05-08T10:07:48.175Z,32.28
2018-05-08T10:08:33.838Z,32.43
2018-05-08T10:09:33.584Z,32.21
2018-05-08T10:10:33.902Z,32.06
2018-05-08T10:12:33.974Z,31.53
2018-05-08T10:13:48.372Z,31.21
2018-05-08T10:14:34.004Z,30.8
2018-05-08T10:15:34.068Z,30.73
2018-05-08T10:16:34.074Z,30.83
2018-05-08T10:17:34.139Z,30.79
2018-05-08T10:18:33.891Z,30.58
2018-05-08T10:19:34.186Z,30.31
2018-05-08T10:20:48.866Z,29.98
2018-05-08T10:21:34.232Z,29.85
2018-05-08T10:22:34.296Z,29.46
2018-05-08T10:23:34.304Z,29.26
2018-05-08T10:24:34.359Z,29.12
2018-05-08T10:25:34.382Z,28.83
2018-05-08T10:26:34.416Z,28.46
2018-05-08T10:27:34.461Z,28.31
2018-05-08T10:28:34.487Z,28.09
2018-05-08T10:29:49.174Z,27.9
2018-05-08T10:30:34.017Z,27.87
2018-05-08T10:31:34.557Z,28.06
2018-05-08T10:32:34.720Z,27.88
2018-05-08T10:33:34.624Z,28.03
2018-05-08T10:34:34.684Z,27.93
2018-05-08T10:35:34.179Z,27.82
2018-05-08T10:36:34.755Z,27.69
2018-05-08T10:37:34.233Z,27.75
2018-05-08T10:38:34.794Z,27.84
2018-05-08T10:39:49.488Z,27.94
2018-05-08T10:40:34.860Z,27.92
2018-05-08T10:42:34.921Z,27.99
2018-05-08T10:44:49.382Z,27.69
2018-05-08T10:45:35.005Z,27.69
2018-05-08T10:46:35.062Z,27.69
2018-05-08T10:47:49.732Z,27.74
2018-05-08T10:48:34.862Z,27.85
2018-05-08T10:50:35.160Z,27.7
2018-05-08T10:51:34.937Z,27.44
2018-05-08T10:52:35.237Z,27.5
2018-05-08T10:53:35.250Z,27.51
2018-05-08T10:54:35.312Z,27.46
2018-05-08T10:55:35.068Z,27.43
2018-05-08T10:57:35.395Z,27.49
2018-05-08T10:59:35.462Z,27.31
2018-05-08T11:00:35.473Z,27.44
2018-05-08T11:01:35.538Z,27.32
2018-05-08T11:02:35.530Z,27.31
2018-05-08T11:03:35.554Z,27.25
2018-05-08T11:04:35.593Z,27.32
2018-05-08T11:05:35.428Z,27.21
2018-05-08T11:06:35.641Z,27.32
2018-05-08T11:07:35.438Z,27.25
2018-05-08T11:08:35.453Z,27.29
2018-05-08T11:09:35.544Z,27.36
2018-05-08T11:10:50.161Z,27.51
2018-05-08T11:11:35.823Z,27.43
2018-05-08T11:13:35.602Z,27.27
2018-05-08T11:14:35.906Z,27.51
2018-05-08T11:15:35.923Z,27.55
2018-05-08T11:16:50.353Z,27.59
2018-05-08T11:17:35.719Z,27.41
2018-05-08T11:18:35.768Z,27.17
2018-05-08T11:19:35.785Z,27.06
2018-05-08T11:20:36.080Z,27.12
2018-05-08T11:21:36.102Z,27.31
2018-05-08T11:22:36.218Z,27.6
2018-05-08T11:23:50.805Z,27.36
2018-05-08T11:24:35.941Z,27.25
2018-05-08T11:25:35.689Z,27.27
2018-05-08T11:26:50.951Z,27.43
2018-05-08T11:27:35.759Z,27.4
2018-05-08T11:28:36.293Z,27.46
2018-05-08T11:29:36.079Z,27.32
2018-05-08T11:30:35.828Z,27.21
2018-05-08T11:31:36.145Z,27.41
2018-05-08T11:32:51.077Z,27.18
2018-05-08T11:33:36.466Z,27.24
2018-05-08T11:34:36.478Z,27.21
2018-05-08T11:35:36.523Z,26.91
2018-05-08T11:36:36.522Z,26.91
2018-05-08T11:37:36.564Z,26.92
2018-05-08T11:38:36.336Z,26.72
2018-05-08T11:39:51.292Z,26.7
2018-05-08T11:40:36.670Z,26.65
2018-05-08T11:41:36.663Z,26.66
2018-05-08T11:42:36.721Z,26.97
2018-05-08T11:43:36.469Z,27.14
2018-05-08T11:44:36.841Z,27.31
2018-05-08T11:45:36.524Z,27.43
2018-05-08T11:46:36.576Z,27.63
2018-05-08T11:47:36.859Z,27.67
2018-05-08T11:49:51.570Z,27.7
2018-05-08T11:50:36.697Z,27.51
2018-05-08T11:51:36.975Z,27.62
2018-05-08T11:52:36.767Z,27.69
2018-05-08T11:53:36.760Z,27.7
2018-05-08T11:54:37.053Z,27.6
2018-05-08T11:55:37.086Z,27.39
2018-05-08T11:56:37.139Z,27.41
2018-05-08T11:57:36.896Z,27.37
2018-05-08T11:58:37.174Z,27.18
2018-05-08T11:59:37.245Z,27.43
2018-05-08T12:00:37.215Z,27.46
2018-05-08T12:01:37.012Z,27.55
2018-05-08T12:02:37.497Z,27.43
2018-05-08T12:03:51.792Z,27.29
2018-05-08T12:04:52.014Z,27.32
2018-05-08T12:05:37.365Z,27.32
2018-05-08T12:06:37.416Z,27.4
2018-05-08T12:07:37.423Z,27.29
2018-05-08T12:08:37.476Z,27.39
2018-05-08T12:09:37.477Z,27.55
2018-05-08T12:10:37.007Z,27.67
2018-05-08T12:11:37.287Z,27.63
2018-05-08T12:12:37.165Z,27.77
2018-05-08T12:13:37.342Z,27.66
2018-05-08T12:14:37.747Z,27.72
2018-05-08T12:15:37.665Z,27.69
2018-05-08T12:16:37.678Z,27.49
2018-05-08T12:17:37.710Z,27.37
2018-05-08T12:18:37.761Z,27.29
2018-05-08T12:19:52.429Z,26.91
2018-05-08T12:20:37.831Z,27.07
2018-05-08T12:22:37.870Z,27.44
2018-05-08T12:23:37.626Z,27.51
2018-05-08T12:24:37.910Z,27.59
2018-05-08T12:25:37.826Z,27.79
2018-05-08T12:26:37.986Z,27.65
2018-05-08T12:27:38.028Z,27.66
2018-05-08T12:28:38.036Z,27.67
2018-05-08T12:29:52.730Z,27.65
2018-05-08T12:30:38.194Z,27.66
2018-05-08T12:31:37.645Z,27.54
2018-05-08T12:32:38.156Z,27.31
2018-05-08T12:33:37.924Z,27.49
2018-05-08T12:34:37.964Z,27.47
2018-05-08T12:35:38.242Z,27.6
2018-05-08T12:36:38.276Z,27.67
2018-05-08T12:37:38.282Z,27.7
2018-05-08T12:38:38.076Z,27.72
2018-05-08T12:39:38.336Z,27.74
2018-05-08T12:40:38.129Z,27.82
2018-05-08T12:41:38.416Z,27.84
2018-05-08T12:42:38.426Z,27.99
2018-05-08T12:43:38.229Z,27.97
2018-05-08T12:44:38.509Z,27.74
2018-05-08T12:45:38.531Z,27.51
2018-05-08T12:46:38.538Z,27.54
2018-05-08T12:47:38.596Z,27.4
2018-05-08T12:48:38.624Z,27.32
2018-05-08T12:49:38.638Z,27.36
2018-05-08T12:50:38.906Z,27.39
2018-05-08T12:51:53.358Z,27.37
2018-05-08T12:52:38.748Z,27.55
2018-05-08T12:53:38.494Z,27.54
2018-05-08T12:54:38.771Z,27.67
2018-05-08T12:55:38.822Z,27.41
2018-05-08T12:56:38.843Z,27.41
2018-05-08T12:57:38.630Z,27.57
2018-05-08T12:58:38.888Z,27.55
2018-05-08T12:59:38.683Z,27.4
2018-05-08T13:00:38.944Z,27.31
2018-05-08T13:02:39.024Z,27
2018-05-08T13:04:39.084Z,26.92
2018-05-08T13:05:38.821Z,26.94
2018-05-08T13:06:39.151Z,27.07
2018-05-08T13:08:39.198Z,27.29
2018-05-08T13:09:39.203Z,27.13
2018-05-08T13:10:38.986Z,26.99
2018-05-08T13:11:39.253Z,27.06
2018-05-08T13:12:39.313Z,27.03
2018-05-08T13:13:53.971Z,27.06
2018-05-08T13:14:39.106Z,27.25
2018-05-08T13:15:39.400Z,27.29
2018-05-08T13:16:39.403Z,27.37
2018-05-08T13:17:39.434Z,27.51
2018-05-08T13:18:39.196Z,27.4
2018-05-08T13:19:39.246Z,27.25
2018-05-08T13:20:39.509Z,27.25
2018-05-08T13:21:39.571Z,27.1
2018-05-08T13:22:39.570Z,26.88
2018-05-08T13:23:54.311Z,27
2018-05-08T13:24:39.620Z,27.06
2018-05-08T13:25:54.316Z,26.97
2018-05-08T13:26:39.720Z,26.92
2018-05-08T13:27:39.748Z,26.99
2018-05-08T13:28:39.242Z,26.99
2018-05-08T13:29:39.876Z,26.88
2018-05-08T13:30:39.565Z,26.85
2018-05-08T13:31:39.565Z,26.94
2018-05-08T13:32:39.854Z,27.14
2018-05-08T13:33:39.630Z,27.12
2018-05-08T13:34:39.937Z,27.07
2018-05-08T13:35:39.934Z,26.94
2018-05-08T13:36:54.685Z,26.95
2018-05-08T13:37:39.992Z,26.91
2018-05-08T13:38:40.052Z,27.07
2018-05-08T13:39:54.723Z,27.02
2018-05-08T13:40:40.083Z,26.95
2018-05-08T13:41:40.134Z,26.92
2018-05-08T13:42:40.133Z,26.97
2018-05-08T13:43:40.173Z,26.94
2018-05-08T13:44:40.189Z,26.97
2018-05-08T13:45:39.982Z,26.81
2018-05-08T13:46:40.276Z,27.06
2018-05-08T13:47:40.298Z,27.21
2018-05-08T13:48:40.302Z,27.29
2018-05-08T13:49:40.329Z,27.27
2018-05-08T13:50:40.397Z,27.22
2018-05-08T13:51:40.137Z,27.24
2018-05-08T13:52:40.179Z,27.31
2018-05-08T13:53:40.443Z,27.24